sensor_id;sensor_type;location;lat;lon;timestamp;P1;durP1;ratioP1;P2;durP2;ratioP2
55461;SDS011;41327;45.102;20.624;2023-09-12T00:01:57;7.55;;;4.50;;
55461;SDS011;41327;45.102;20.624;2023-09-12T00:04:22;7.53;;;5.18;;
55461;SDS011;41327;45.102;20.624;2023-09-12T00:06:48;8.25;;;4.75;;
55461;SDS011;41327;45.102;20.624;2023-09-12T00:09:13;6.28;;;4.72;;
55461;SDS011;41327;45.102;20.624;2023-09-12T00:11:39;8.38;;;4.53;;
55461;SDS011;41327;45.102;20.624;2023-09-12T00:14:04;7.75;;;4.45;;
55461;SDS011;41327;45.102;20.624;2023-09-12T00:16:30;7.85;;;4.35;;
55461;SDS011;41327;45.102;20.624;2023-09-12T00:18:55;11.10;;;4.80;;
55461;SDS011;41327;45.102;20.624;2023-09-12T00:21:21;5.72;;;3.97;;
55461;SDS011;41327;45.102;20.624;2023-09-12T00:23:46;9.25;;;5.05;;
55461;SDS011;41327;45.102;20.624;2023-09-12T00:26:12;11.18;;;4.72;;
55461;SDS011;41327;45.102;20.624;2023-09-12T00:28:37;6.88;;;4.15;;
55461;SDS011;41327;45.102;20.624;2023-09-12T00:31:03;6.68;;;4.47;;
55461;SDS011;41327;45.102;20.624;2023-09-12T00:33:29;8.15;;;4.80;;
55461;SDS011;41327;45.102;20.624;2023-09-12T00:35:54;8.88;;;5.03;;
55461;SDS011;41327;45.102;20.624;2023-09-12T00:38:20;9.75;;;4.75;;
55461;SDS011;41327;45.102;20.624;2023-09-12T00:40:45;10.15;;;4.50;;
55461;SDS011;41327;45.102;20.624;2023-09-12T00:43:11;7.57;;;4.30;;
55461;SDS011;41327;45.102;20.624;2023-09-12T00:45:36;9.80;;;4.45;;
55461;SDS011;41327;45.102;20.624;2023-09-12T00:48:02;8.52;;;4.70;;
55461;SDS011;41327;45.102;20.624;2023-09-12T00:50:29;11.00;;;4.70;;
55461;SDS011;41327;45.102;20.624;2023-09-12T00:52:55;9.85;;;4.35;;
55461;SDS011;41327;45.102;20.624;2023-09-12T00:55:21;8.30;;;4.60;;
55461;SDS011;41327;45.102;20.624;2023-09-12T00:57:47;8.38;;;4.22;;
55461;SDS011;41327;45.102;20.624;2023-09-12T01:00:12;9.25;;;4.43;;
55461;SDS011;41327;45.102;20.624;2023-09-12T01:02:41;8.90;;;4.63;;
55461;SDS011;41327;45.102;20.624;2023-09-12T01:05:07;8.80;;;4.10;;
55461;SDS011;41327;45.102;20.624;2023-09-12T01:07:33;5.22;;;4.20;;
55461;SDS011;41327;45.102;20.624;2023-09-12T01:09:59;7.68;;;3.67;;
55461;SDS011;41327;45.102;20.624;2023-09-12T01:12:24;13.55;;;5.43;;
55461;SDS011;41327;45.102;20.624;2023-09-12T01:14:50;7.45;;;4.07;;
55461;SDS011;41327;45.102;20.624;2023-09-12T01:17:16;6.82;;;4.18;;
55461;SDS011;41327;45.102;20.624;2023-09-12T01:19:41;7.10;;;4.13;;
55461;SDS011;41327;45.102;20.624;2023-09-12T01:25:07;7.70;;;4.20;;
55461;SDS011;41327;45.102;20.624;2023-09-12T01:27:37;6.50;;;5.00;;
55461;SDS011;41327;45.102;20.624;2023-09-12T01:30:07;10.27;;;4.50;;
55461;SDS011;41327;45.102;20.624;2023-09-12T01:32:33;6.90;;;4.05;;
55461;SDS011;41327;45.102;20.624;2023-09-12T01:34:59;6.63;;;4.15;;
55461;SDS011;41327;45.102;20.624;2023-09-12T01:37:24;12.35;;;5.30;;
55461;SDS011;41327;45.102;20.624;2023-09-12T01:39:51;8.45;;;4.47;;
55461;SDS011;41327;45.102;20.624;2023-09-12T01:42:18;6.63;;;4.20;;
55461;SDS011;41327;45.102;20.624;2023-09-12T01:44:43;10.68;;;4.50;;
55461;SDS011;41327;45.102;20.624;2023-09-12T01:47:09;6.65;;;3.65;;
55461;SDS011;41327;45.102;20.624;2023-09-12T01:49:35;6.47;;;4.50;;
55461;SDS011;41327;45.102;20.624;2023-09-12T01:52:02;5.68;;;4.28;;
55461;SDS011;41327;45.102;20.624;2023-09-12T01:54:28;7.85;;;4.82;;
55461;SDS011;41327;45.102;20.624;2023-09-12T01:56:56;8.02;;;4.15;;
55461;SDS011;41327;45.102;20.624;2023-09-12T01:59:23;6.18;;;3.90;;
55461;SDS011;41327;45.102;20.624;2023-09-12T02:01:48;9.40;;;4.28;;
55461;SDS011;41327;45.102;20.624;2023-09-12T02:04:14;9.82;;;4.60;;
55461;SDS011;41327;45.102;20.624;2023-09-12T02:06:39;7.20;;;4.45;;
55461;SDS011;41327;45.102;20.624;2023-09-12T02:09:05;8.07;;;3.95;;
55461;SDS011;41327;45.102;20.624;2023-09-12T02:11:30;5.78;;;4.00;;
55461;SDS011;41327;45.102;20.624;2023-09-12T02:13:56;6.88;;;4.40;;
55461;SDS011;41327;45.102;20.624;2023-09-12T02:16:21;7.55;;;4.05;;
55461;SDS011;41327;45.102;20.624;2023-09-12T02:18:47;11.30;;;4.28;;
55461;SDS011;41327;45.102;20.624;2023-09-12T02:21:13;6.90;;;4.60;;
55461;SDS011;41327;45.102;20.624;2023-09-12T02:23:41;7.20;;;3.95;;
55461;SDS011;41327;45.102;20.624;2023-09-12T02:26:06;11.80;;;4.05;;
55461;SDS011;41327;45.102;20.624;2023-09-12T02:28:32;6.65;;;4.22;;
55461;SDS011;41327;45.102;20.624;2023-09-12T02:30:57;7.97;;;4.20;;
55461;SDS011;41327;45.102;20.624;2023-09-12T02:33:23;8.07;;;4.28;;
55461;SDS011;41327;45.102;20.624;2023-09-12T02:35:48;10.52;;;4.28;;
55461;SDS011;41327;45.102;20.624;2023-09-12T02:38:14;5.13;;;3.88;;
55461;SDS011;41327;45.102;20.624;2023-09-12T02:40:39;6.38;;;4.30;;
55461;SDS011;41327;45.102;20.624;2023-09-12T02:43:05;7.55;;;4.60;;
55461;SDS011;41327;45.102;20.624;2023-09-12T02:45:30;19.60;;;5.07;;
55461;SDS011;41327;45.102;20.624;2023-09-12T02:47:56;9.23;;;4.50;;
55461;SDS011;41327;45.102;20.624;2023-09-12T02:50:21;7.65;;;4.47;;
55461;SDS011;41327;45.102;20.624;2023-09-12T02:52:47;7.05;;;4.55;;
55461;SDS011;41327;45.102;20.624;2023-09-12T02:55:12;9.35;;;4.53;;
55461;SDS011;41327;45.102;20.624;2023-09-12T02:57:38;5.47;;;4.15;;
55461;SDS011;41327;45.102;20.624;2023-09-12T03:00:03;5.72;;;4.13;;
55461;SDS011;41327;45.102;20.624;2023-09-12T03:02:32;6.32;;;4.28;;
55461;SDS011;41327;45.102;20.624;2023-09-12T03:04:57;6.10;;;4.15;;
55461;SDS011;41327;45.102;20.624;2023-09-12T03:07:23;8.98;;;4.20;;
55461;SDS011;41327;45.102;20.624;2023-09-12T03:09:49;5.82;;;4.13;;
55461;SDS011;41327;45.102;20.624;2023-09-12T03:12:17;5.95;;;4.20;;
55461;SDS011;41327;45.102;20.624;2023-09-12T03:14:43;9.18;;;4.10;;
55461;SDS011;41327;45.102;20.624;2023-09-12T03:17:08;10.73;;;4.15;;
55461;SDS011;41327;45.102;20.624;2023-09-12T03:19:33;6.03;;;4.00;;
55461;SDS011;41327;45.102;20.624;2023-09-12T03:21:59;7.25;;;3.90;;
55461;SDS011;41327;45.102;20.624;2023-09-12T03:24:24;8.60;;;4.00;;
55461;SDS011;41327;45.102;20.624;2023-09-12T03:26:50;9.32;;;4.28;;
55461;SDS011;41327;45.102;20.624;2023-09-12T03:29:16;6.15;;;3.92;;
55461;SDS011;41327;45.102;20.624;2023-09-12T03:31:41;8.35;;;4.38;;
55461;SDS011;41327;45.102;20.624;2023-09-12T03:34:07;8.48;;;4.90;;
55461;SDS011;41327;45.102;20.624;2023-09-12T03:36:32;9.02;;;4.82;;
55461;SDS011;41327;45.102;20.624;2023-09-12T03:38:58;7.32;;;4.90;;
55461;SDS011;41327;45.102;20.624;2023-09-12T03:41:23;12.40;;;5.00;;
55461;SDS011;41327;45.102;20.624;2023-09-12T03:43:52;9.35;;;5.28;;
55461;SDS011;41327;45.102;20.624;2023-09-12T03:46:18;8.50;;;5.25;;
55461;SDS011;41327;45.102;20.624;2023-09-12T03:48:43;11.55;;;5.93;;
55461;SDS011;41327;45.102;20.624;2023-09-12T03:51:08;7.15;;;5.07;;
55461;SDS011;41327;45.102;20.624;2023-09-12T03:53:34;9.98;;;5.38;;
55461;SDS011;41327;45.102;20.624;2023-09-12T03:55:59;8.13;;;5.45;;
55461;SDS011;41327;45.102;20.624;2023-09-12T03:58:25;7.47;;;4.72;;
55461;SDS011;41327;45.102;20.624;2023-09-12T04:00:50;7.00;;;5.43;;
55461;SDS011;41327;45.102;20.624;2023-09-12T04:03:16;6.90;;;4.70;;
55461;SDS011;41327;45.102;20.624;2023-09-12T04:05:41;8.98;;;5.10;;
55461;SDS011;41327;45.102;20.624;2023-09-12T04:08:07;6.43;;;4.80;;
55461;SDS011;41327;45.102;20.624;2023-09-12T04:10:32;10.45;;;6.30;;
55461;SDS011;41327;45.102;20.624;2023-09-12T04:12:58;10.75;;;5.32;;
55461;SDS011;41327;45.102;20.624;2023-09-12T04:15:23;10.68;;;4.72;;
55461;SDS011;41327;45.102;20.624;2023-09-12T04:17:49;8.27;;;5.30;;
55461;SDS011;41327;45.102;20.624;2023-09-12T04:20:14;10.48;;;5.10;;
55461;SDS011;41327;45.102;20.624;2023-09-12T04:22:42;8.55;;;4.40;;
55461;SDS011;41327;45.102;20.624;2023-09-12T04:25:08;8.00;;;4.40;;
55461;SDS011;41327;45.102;20.624;2023-09-12T04:27:33;9.85;;;4.72;;
55461;SDS011;41327;45.102;20.624;2023-09-12T04:29:59;11.70;;;4.50;;
55461;SDS011;41327;45.102;20.624;2023-09-12T04:32:25;7.82;;;4.65;;
55461;SDS011;41327;45.102;20.624;2023-09-12T04:34:50;8.40;;;4.35;;
55461;SDS011;41327;45.102;20.624;2023-09-12T04:37:16;9.95;;;5.13;;
55461;SDS011;41327;45.102;20.624;2023-09-12T04:39:41;8.60;;;4.82;;
55461;SDS011;41327;45.102;20.624;2023-09-12T04:42:07;7.35;;;4.45;;
55461;SDS011;41327;45.102;20.624;2023-09-12T04:44:39;9.15;;;4.50;;
55461;SDS011;41327;45.102;20.624;2023-09-12T04:47:05;6.60;;;4.13;;
55461;SDS011;41327;45.102;20.624;2023-09-12T04:49:30;7.10;;;4.35;;
55461;SDS011;41327;45.102;20.624;2023-09-12T04:51:56;9.70;;;4.57;;
55461;SDS011;41327;45.102;20.624;2023-09-12T04:54:21;12.75;;;4.22;;
55461;SDS011;41327;45.102;20.624;2023-09-12T04:56:47;8.95;;;4.50;;
55461;SDS011;41327;45.102;20.624;2023-09-12T04:59:12;9.60;;;4.95;;
55461;SDS011;41327;45.102;20.624;2023-09-12T05:01:38;9.13;;;4.47;;
55461;SDS011;41327;45.102;20.624;2023-09-12T05:04:04;6.65;;;3.60;;
55461;SDS011;41327;45.102;20.624;2023-09-12T05:06:30;6.47;;;4.28;;
55461;SDS011;41327;45.102;20.624;2023-09-12T05:08:55;9.50;;;4.50;;
55461;SDS011;41327;45.102;20.624;2023-09-12T05:11:24;7.65;;;4.30;;
55461;SDS011;41327;45.102;20.624;2023-09-12T05:13:50;8.52;;;4.63;;
55461;SDS011;41327;45.102;20.624;2023-09-12T05:16:15;7.38;;;4.15;;
55461;SDS011;41327;45.102;20.624;2023-09-12T05:18:41;8.35;;;3.95;;
55461;SDS011;41327;45.102;20.624;2023-09-12T05:21:06;8.57;;;4.50;;
55461;SDS011;41327;45.102;20.624;2023-09-12T05:23:32;8.05;;;4.95;;
55461;SDS011;41327;45.102;20.624;2023-09-12T05:25:57;9.63;;;4.57;;
55461;SDS011;41327;45.102;20.624;2023-09-12T05:28:23;7.45;;;4.78;;
55461;SDS011;41327;45.102;20.624;2023-09-12T05:30:48;8.63;;;4.13;;
55461;SDS011;41327;45.102;20.624;2023-09-12T05:33:17;5.88;;;4.15;;
55461;SDS011;41327;45.102;20.624;2023-09-12T05:35:42;7.10;;;4.95;;
55461;SDS011;41327;45.102;20.624;2023-09-12T05:38:09;8.35;;;4.00;;
55461;SDS011;41327;45.102;20.624;2023-09-12T05:40:34;7.72;;;3.38;;
55461;SDS011;41327;45.102;20.624;2023-09-12T05:43:00;11.50;;;3.67;;
55461;SDS011;41327;45.102;20.624;2023-09-12T05:45:25;8.57;;;3.97;;
55461;SDS011;41327;45.102;20.624;2023-09-12T05:47:51;13.50;;;4.20;;
55461;SDS011;41327;45.102;20.624;2023-09-12T05:50:17;8.55;;;4.22;;
55461;SDS011;41327;45.102;20.624;2023-09-12T05:52:42;6.60;;;3.72;;
55461;SDS011;41327;45.102;20.624;2023-09-12T05:55:08;9.02;;;3.50;;
55461;SDS011;41327;45.102;20.624;2023-09-12T05:57:33;4.97;;;3.80;;
55461;SDS011;41327;45.102;20.624;2023-09-12T05:59:59;8.48;;;3.95;;
55461;SDS011;41327;45.102;20.624;2023-09-12T06:02:25;11.95;;;4.00;;
55461;SDS011;41327;45.102;20.624;2023-09-12T06:04:51;9.60;;;3.60;;
55461;SDS011;41327;45.102;20.624;2023-09-12T06:07:16;9.13;;;3.75;;
55461;SDS011;41327;45.102;20.624;2023-09-12T06:09:42;14.25;;;3.72;;
55461;SDS011;41327;45.102;20.624;2023-09-12T06:12:07;8.80;;;3.80;;
55461;SDS011;41327;45.102;20.624;2023-09-12T06:14:33;11.18;;;4.32;;
55461;SDS011;41327;45.102;20.624;2023-09-12T06:16:58;8.20;;;3.35;;
55461;SDS011;41327;45.102;20.624;2023-09-12T06:19:24;9.02;;;3.38;;
55461;SDS011;41327;45.102;20.624;2023-09-12T06:21:49;8.48;;;3.35;;
55461;SDS011;41327;45.102;20.624;2023-09-12T06:24:19;10.55;;;3.47;;
55461;SDS011;41327;45.102;20.624;2023-09-12T06:26:46;4.63;;;3.38;;
55461;SDS011;41327;45.102;20.624;2023-09-12T06:29:11;6.90;;;3.40;;
55461;SDS011;41327;45.102;20.624;2023-09-12T06:31:37;4.30;;;2.85;;
55461;SDS011;41327;45.102;20.624;2023-09-12T06:34:02;8.80;;;3.22;;
55461;SDS011;41327;45.102;20.624;2023-09-12T06:36:27;8.05;;;3.42;;
55461;SDS011;41327;45.102;20.624;2023-09-12T06:38:56;7.35;;;3.15;;
55461;SDS011;41327;45.102;20.624;2023-09-12T06:41:22;5.40;;;2.70;;
55461;SDS011;41327;45.102;20.624;2023-09-12T06:43:47;7.95;;;3.10;;
55461;SDS011;41327;45.102;20.624;2023-09-12T06:46:13;4.28;;;2.97;;
55461;SDS011;41327;45.102;20.624;2023-09-12T06:48:39;7.05;;;3.38;;
55461;SDS011;41327;45.102;20.624;2023-09-12T06:51:04;10.10;;;2.97;;
55461;SDS011;41327;45.102;20.624;2023-09-12T06:53:30;4.13;;;2.83;;
55461;SDS011;41327;45.102;20.624;2023-09-12T06:55:55;6.13;;;2.50;;
55461;SDS011;41327;45.102;20.624;2023-09-12T06:58:22;18.90;;;3.30;;
55461;SDS011;41327;45.102;20.624;2023-09-12T07:00:48;10.93;;;3.08;;
55461;SDS011;41327;45.102;20.624;2023-09-12T07:03:13;6.03;;;2.80;;
55461;SDS011;41327;45.102;20.624;2023-09-12T07:05:39;5.45;;;2.78;;
55461;SDS011;41327;45.102;20.624;2023-09-12T07:08:05;14.85;;;4.10;;
55461;SDS011;41327;45.102;20.624;2023-09-12T07:10:30;3.95;;;2.55;;
55461;SDS011;41327;45.102;20.624;2023-09-12T07:12:56;11.13;;;2.97;;
55461;SDS011;41327;45.102;20.624;2023-09-12T07:15:22;5.15;;;2.58;;
55461;SDS011;41327;45.102;20.624;2023-09-12T07:17:48;6.93;;;2.85;;
55461;SDS011;41327;45.102;20.624;2023-09-12T07:20:13;7.65;;;3.05;;
55461;SDS011;41327;45.102;20.624;2023-09-12T07:22:39;16.38;;;3.40;;
55461;SDS011;41327;45.102;20.624;2023-09-12T07:25:07;13.55;;;2.80;;
55461;SDS011;41327;45.102;20.624;2023-09-12T07:27:34;17.13;;;4.22;;
55461;SDS011;41327;45.102;20.624;2023-09-12T07:29:59;25.45;;;4.80;;
55461;SDS011;41327;45.102;20.624;2023-09-12T07:32:25;23.27;;;4.05;;
55461;SDS011;41327;45.102;20.624;2023-09-12T07:34:50;21.17;;;4.75;;
55461;SDS011;41327;45.102;20.624;2023-09-12T07:37:16;6.82;;;2.80;;
55461;SDS011;41327;45.102;20.624;2023-09-12T07:39:41;3.42;;;2.05;;
55461;SDS011;41327;45.102;20.624;2023-09-12T07:42:06;5.47;;;2.80;;
55461;SDS011;41327;45.102;20.624;2023-09-12T07:44:32;9.85;;;2.70;;
55461;SDS011;41327;45.102;20.624;2023-09-12T07:46:57;5.90;;;2.60;;
55461;SDS011;41327;45.102;20.624;2023-09-12T07:49:23;4.20;;;2.00;;
55461;SDS011;41327;45.102;20.624;2023-09-12T07:51:51;4.32;;;2.40;;
55461;SDS011;41327;45.102;20.624;2023-09-12T07:54:16;3.75;;;2.28;;
55461;SDS011;41327;45.102;20.624;2023-09-12T07:56:43;10.27;;;3.10;;
55461;SDS011;41327;45.102;20.624;2023-09-12T07:59:08;9.57;;;2.67;;
55461;SDS011;41327;45.102;20.624;2023-09-12T08:01:35;4.82;;;2.40;;
55461;SDS011;41327;45.102;20.624;2023-09-12T08:04:00;6.72;;;2.40;;
55461;SDS011;41327;45.102;20.624;2023-09-12T08:06:25;4.28;;;2.10;;
55461;SDS011;41327;45.102;20.624;2023-09-12T08:08:51;6.05;;;2.58;;
55461;SDS011;41327;45.102;20.624;2023-09-12T08:11:17;4.22;;;2.22;;
55461;SDS011;41327;45.102;20.624;2023-09-12T08:13:43;30.13;;;4.47;;
55461;SDS011;41327;45.102;20.624;2023-09-12T08:16:08;14.70;;;3.50;;
55461;SDS011;41327;45.102;20.624;2023-09-12T08:18:34;10.38;;;3.15;;
55461;SDS011;41327;45.102;20.624;2023-09-12T08:20:59;5.82;;;2.40;;
55461;SDS011;41327;45.102;20.624;2023-09-12T08:23:25;6.05;;;2.28;;
55461;SDS011;41327;45.102;20.624;2023-09-12T08:25:50;4.38;;;2.10;;
55461;SDS011;41327;45.102;20.624;2023-09-12T08:28:16;4.25;;;1.85;;
55461;SDS011;41327;45.102;20.624;2023-09-12T08:30:43;3.15;;;2.33;;
55461;SDS011;41327;45.102;20.624;2023-09-12T08:33:08;6.75;;;2.70;;
55461;SDS011;41327;45.102;20.624;2023-09-12T08:35:34;5.68;;;2.28;;
55461;SDS011;41327;45.102;20.624;2023-09-12T08:37:59;6.07;;;2.72;;
55461;SDS011;41327;45.102;20.624;2023-09-12T08:40:24;5.65;;;2.35;;
55461;SDS011;41327;45.102;20.624;2023-09-12T08:42:50;4.40;;;2.25;;
55461;SDS011;41327;45.102;20.624;2023-09-12T08:45:17;6.70;;;2.55;;
55461;SDS011;41327;45.102;20.624;2023-09-12T08:47:53;12.07;;;3.97;;
55461;SDS011;41327;45.102;20.624;2023-09-12T08:50:20;17.30;;;4.07;;
55461;SDS011;41327;45.102;20.624;2023-09-12T08:52:46;26.85;;;6.30;;
55461;SDS011;41327;45.102;20.624;2023-09-12T08:55:12;12.82;;;4.45;;
55461;SDS011;41327;45.102;20.624;2023-09-12T08:57:38;7.57;;;2.85;;
55461;SDS011;41327;45.102;20.624;2023-09-12T09:00:04;13.20;;;2.92;;
55461;SDS011;41327;45.102;20.624;2023-09-12T09:02:42;11.07;;;2.40;;
55461;SDS011;41327;45.102;20.624;2023-09-12T09:05:08;5.57;;;2.25;;
55461;SDS011;41327;45.102;20.624;2023-09-12T09:07:35;5.32;;;2.13;;
55461;SDS011;41327;45.102;20.624;2023-09-12T09:10:04;4.78;;;2.33;;
55461;SDS011;41327;45.102;20.624;2023-09-12T09:12:30;6.40;;;2.70;;
55461;SDS011;41327;45.102;20.624;2023-09-12T09:14:56;7.55;;;3.50;;
55461;SDS011;41327;45.102;20.624;2023-09-12T09:17:21;9.30;;;2.95;;
55461;SDS011;41327;45.102;20.624;2023-09-12T09:19:47;7.82;;;2.28;;
55461;SDS011;41327;45.102;20.624;2023-09-12T09:22:13;11.23;;;4.03;;
55461;SDS011;41327;45.102;20.624;2023-09-12T09:24:38;16.30;;;4.32;;
55461;SDS011;41327;45.102;20.624;2023-09-12T09:27:04;10.70;;;4.05;;
55461;SDS011;41327;45.102;20.624;2023-09-12T09:29:29;10.15;;;4.00;;
55461;SDS011;41327;45.102;20.624;2023-09-12T09:31:58;12.57;;;2.95;;
55461;SDS011;41327;45.102;20.624;2023-09-12T09:34:23;6.93;;;2.60;;
55461;SDS011;41327;45.102;20.624;2023-09-12T09:36:52;3.95;;;2.30;;
55461;SDS011;41327;45.102;20.624;2023-09-12T09:39:20;6.95;;;3.00;;
55461;SDS011;41327;45.102;20.624;2023-09-12T09:41:50;7.07;;;2.30;;
55461;SDS011;41327;45.102;20.624;2023-09-12T09:44:15;11.05;;;3.25;;
55461;SDS011;41327;45.102;20.624;2023-09-12T09:46:44;5.43;;;3.47;;
55461;SDS011;41327;45.102;20.624;2023-09-12T09:49:10;11.63;;;3.85;;
55461;SDS011;41327;45.102;20.624;2023-09-12T09:51:42;8.48;;;3.30;;
55461;SDS011;41327;45.102;20.624;2023-09-12T09:54:08;10.77;;;3.33;;
55461;SDS011;41327;45.102;20.624;2023-09-12T09:56:44;11.48;;;3.50;;
55461;SDS011;41327;45.102;20.624;2023-09-12T09:59:11;13.13;;;4.72;;
55461;SDS011;41327;45.102;20.624;2023-09-12T10:01:38;8.57;;;2.97;;
55461;SDS011;41327;45.102;20.624;2023-09-12T10:04:04;7.15;;;2.40;;
55461;SDS011;41327;45.102;20.624;2023-09-12T10:06:30;7.00;;;2.35;;
55461;SDS011;41327;45.102;20.624;2023-09-12T10:08:56;5.43;;;2.47;;
55461;SDS011;41327;45.102;20.624;2023-09-12T10:11:24;8.48;;;2.50;;
55461;SDS011;41327;45.102;20.624;2023-09-12T10:13:52;10.30;;;3.17;;
55461;SDS011;41327;45.102;20.624;2023-09-12T10:16:18;7.53;;;2.58;;
55461;SDS011;41327;45.102;20.624;2023-09-12T10:21:30;7.65;;;2.63;;
55461;SDS011;41327;45.102;20.624;2023-09-12T10:23:58;6.90;;;2.45;;
55461;SDS011;41327;45.102;20.624;2023-09-12T10:26:24;8.52;;;3.38;;
55461;SDS011;41327;45.102;20.624;2023-09-12T10:28:49;10.77;;;3.88;;
55461;SDS011;41327;45.102;20.624;2023-09-12T10:31:15;7.07;;;3.08;;
55461;SDS011;41327;45.102;20.624;2023-09-12T10:33:48;9.07;;;2.78;;
55461;SDS011;41327;45.102;20.624;2023-09-12T10:36:22;4.40;;;2.47;;
55461;SDS011;41327;45.102;20.624;2023-09-12T10:38:48;8.40;;;3.20;;
55461;SDS011;41327;45.102;20.624;2023-09-12T10:41:14;19.45;;;3.28;;
55461;SDS011;41327;45.102;20.624;2023-09-12T10:43:40;8.55;;;2.42;;
55461;SDS011;41327;45.102;20.624;2023-09-12T10:46:06;5.72;;;2.30;;
55461;SDS011;41327;45.102;20.624;2023-09-12T10:48:32;6.07;;;2.08;;
55461;SDS011;41327;45.102;20.624;2023-09-12T10:50:58;5.75;;;3.17;;
55461;SDS011;41327;45.102;20.624;2023-09-12T10:53:26;11.05;;;3.78;;
55461;SDS011;41327;45.102;20.624;2023-09-12T10:55:58;10.10;;;3.83;;
55461;SDS011;41327;45.102;20.624;2023-09-12T10:58:24;11.57;;;3.20;;
55461;SDS011;41327;45.102;20.624;2023-09-12T11:03:38;7.63;;;3.13;;
55461;SDS011;41327;45.102;20.624;2023-09-12T11:06:19;6.45;;;2.45;;
55461;SDS011;41327;45.102;20.624;2023-09-12T11:08:45;5.38;;;2.45;;
55461;SDS011;41327;45.102;20.624;2023-09-12T11:11:30;5.75;;;2.63;;
55461;SDS011;41327;45.102;20.624;2023-09-12T11:14:14;4.82;;;2.45;;
55461;SDS011;41327;45.102;20.624;2023-09-12T11:16:40;9.15;;;2.22;;
55461;SDS011;41327;45.102;20.624;2023-09-12T11:19:12;7.13;;;2.38;;
55461;SDS011;41327;45.102;20.624;2023-09-12T11:21:47;8.43;;;2.53;;
55461;SDS011;41327;45.102;20.624;2023-09-12T11:24:13;20.08;;;3.60;;
55461;SDS011;41327;45.102;20.624;2023-09-12T11:29:19;8.40;;;2.95;;
55461;SDS011;41327;45.102;20.624;2023-09-12T11:31:55;5.43;;;2.30;;
55461;SDS011;41327;45.102;20.624;2023-09-12T11:34:24;7.65;;;2.17;;
55461;SDS011;41327;45.102;20.624;2023-09-12T11:36:49;4.80;;;2.13;;
55461;SDS011;41327;45.102;20.624;2023-09-12T11:39:34;6.13;;;2.75;;
55461;SDS011;41327;45.102;20.624;2023-09-12T11:42:00;10.02;;;3.42;;
55461;SDS011;41327;45.102;20.624;2023-09-12T11:44:26;5.63;;;2.17;;
55461;SDS011;41327;45.102;20.624;2023-09-12T11:46:52;3.67;;;2.15;;
55461;SDS011;41327;45.102;20.624;2023-09-12T11:49:17;8.73;;;2.33;;
55461;SDS011;41327;45.102;20.624;2023-09-12T11:51:53;8.98;;;2.45;;
55461;SDS011;41327;45.102;20.624;2023-09-12T11:54:19;8.98;;;2.30;;
55461;SDS011;41327;45.102;20.624;2023-09-12T11:56:47;8.45;;;2.30;;
55461;SDS011;41327;45.102;20.624;2023-09-12T11:59:14;14.15;;;2.78;;
55461;SDS011;41327;45.102;20.624;2023-09-12T12:01:41;4.25;;;1.77;;
55461;SDS011;41327;45.102;20.624;2023-09-12T12:04:06;4.32;;;2.55;;
55461;SDS011;41327;45.102;20.624;2023-09-12T12:06:32;6.20;;;2.78;;
55461;SDS011;41327;45.102;20.624;2023-09-12T12:08:58;3.92;;;2.25;;
55461;SDS011;41327;45.102;20.624;2023-09-12T12:11:27;5.38;;;2.30;;
55461;SDS011;41327;45.102;20.624;2023-09-12T12:13:53;3.60;;;1.88;;
55461;SDS011;41327;45.102;20.624;2023-09-12T12:16:18;6.15;;;2.50;;
55461;SDS011;41327;45.102;20.624;2023-09-12T12:18:44;5.22;;;2.00;;
55461;SDS011;41327;45.102;20.624;2023-09-12T12:21:10;4.68;;;1.88;;
55461;SDS011;41327;45.102;20.624;2023-09-12T12:23:35;11.43;;;2.60;;
55461;SDS011;41327;45.102;20.624;2023-09-12T12:26:10;3.50;;;2.13;;
55461;SDS011;41327;45.102;20.624;2023-09-12T12:28:36;4.68;;;1.98;;
55461;SDS011;41327;45.102;20.624;2023-09-12T12:31:02;7.32;;;2.08;;
55461;SDS011;41327;45.102;20.624;2023-09-12T12:33:28;8.27;;;2.33;;
55461;SDS011;41327;45.102;20.624;2023-09-12T12:36:00;11.13;;;2.20;;
55461;SDS011;41327;45.102;20.624;2023-09-12T12:38:26;5.40;;;2.63;;
55461;SDS011;41327;45.102;20.624;2023-09-12T12:40:51;5.03;;;2.08;;
55461;SDS011;41327;45.102;20.624;2023-09-12T12:43:18;9.07;;;2.38;;
55461;SDS011;41327;45.102;20.624;2023-09-12T12:45:54;8.35;;;2.63;;
55461;SDS011;41327;45.102;20.624;2023-09-12T12:48:34;6.22;;;3.50;;
55461;SDS011;41327;45.102;20.624;2023-09-12T12:51:17;5.78;;;3.67;;
55461;SDS011;41327;45.102;20.624;2023-09-12T12:53:46;2.97;;;1.95;;
55461;SDS011;41327;45.102;20.624;2023-09-12T12:56:15;3.13;;;1.75;;
55461;SDS011;41327;45.102;20.624;2023-09-12T12:58:49;3.63;;;1.98;;
55461;SDS011;41327;45.102;20.624;2023-09-12T13:01:15;6.72;;;2.67;;
55461;SDS011;41327;45.102;20.624;2023-09-12T13:03:41;6.63;;;2.65;;
55461;SDS011;41327;45.102;20.624;2023-09-12T13:06:07;8.43;;;3.03;;
55461;SDS011;41327;45.102;20.624;2023-09-12T13:08:33;7.28;;;1.80;;
55461;SDS011;41327;45.102;20.624;2023-09-12T13:11:00;6.18;;;2.00;;
55461;SDS011;41327;45.102;20.624;2023-09-12T13:13:26;7.20;;;2.80;;
55461;SDS011;41327;45.102;20.624;2023-09-12T13:15:51;7.10;;;2.10;;
55461;SDS011;41327;45.102;20.624;2023-09-12T13:18:17;8.40;;;2.40;;
55461;SDS011;41327;45.102;20.624;2023-09-12T13:20:43;6.85;;;1.98;;
55461;SDS011;41327;45.102;20.624;2023-09-12T13:23:08;4.28;;;2.28;;
55461;SDS011;41327;45.102;20.624;2023-09-12T13:25:34;5.72;;;3.05;;
55461;SDS011;41327;45.102;20.624;2023-09-12T13:27:59;11.25;;;7.80;;
55461;SDS011;41327;45.102;20.624;2023-09-12T13:30:24;10.43;;;4.30;;
55461;SDS011;41327;45.102;20.624;2023-09-12T13:32:50;5.88;;;3.90;;
55461;SDS011;41327;45.102;20.624;2023-09-12T13:35:15;4.20;;;2.17;;
55461;SDS011;41327;45.102;20.624;2023-09-12T13:37:41;6.78;;;2.10;;
55461;SDS011;41327;45.102;20.624;2023-09-12T13:40:07;4.63;;;2.10;;
55461;SDS011;41327;45.102;20.624;2023-09-12T13:42:34;7.90;;;2.17;;
55461;SDS011;41327;45.102;20.624;2023-09-12T13:44:59;4.90;;;2.40;;
55461;SDS011;41327;45.102;20.624;2023-09-12T13:47:24;4.68;;;3.08;;
55461;SDS011;41327;45.102;20.624;2023-09-12T13:49:51;10.73;;;2.88;;
55461;SDS011;41327;45.102;20.624;2023-09-12T13:52:22;6.35;;;2.95;;
55461;SDS011;41327;45.102;20.624;2023-09-12T13:54:47;3.88;;;2.10;;
55461;SDS011;41327;45.102;20.624;2023-09-12T13:57:13;9.50;;;2.15;;
55461;SDS011;41327;45.102;20.624;2023-09-12T13:59:38;4.63;;;2.10;;
55461;SDS011;41327;45.102;20.624;2023-09-12T14:02:03;5.63;;;2.38;;
55461;SDS011;41327;45.102;20.624;2023-09-12T14:04:29;7.57;;;2.08;;
55461;SDS011;41327;45.102;20.624;2023-09-12T14:06:54;5.03;;;2.50;;
55461;SDS011;41327;45.102;20.624;2023-09-12T14:09:20;9.02;;;5.00;;
55461;SDS011;41327;45.102;20.624;2023-09-12T14:11:45;10.63;;;2.30;;
55461;SDS011;41327;45.102;20.624;2023-09-12T14:14:12;4.57;;;2.47;;
55461;SDS011;41327;45.102;20.624;2023-09-12T14:16:38;4.60;;;1.83;;
55461;SDS011;41327;45.102;20.624;2023-09-12T14:19:03;4.00;;;1.92;;
55461;SDS011;41327;45.102;20.624;2023-09-12T14:21:29;5.80;;;2.80;;
55461;SDS011;41327;45.102;20.624;2023-09-12T14:23:54;6.75;;;4.00;;
55461;SDS011;41327;45.102;20.624;2023-09-12T14:26:20;7.75;;;2.55;;
55461;SDS011;41327;45.102;20.624;2023-09-12T14:28:45;9.75;;;4.60;;
55461;SDS011;41327;45.102;20.624;2023-09-12T14:31:11;7.28;;;2.78;;
55461;SDS011;41327;45.102;20.624;2023-09-12T14:33:42;5.55;;;2.78;;
55461;SDS011;41327;45.102;20.624;2023-09-12T14:36:08;7.53;;;2.83;;
55461;SDS011;41327;45.102;20.624;2023-09-12T14:38:34;4.57;;;2.70;;